Time;durP1;ratioP1;P1;durP2;ratioP2;P2;SDS_P1;SDS_P2;PMS_P1;PMS_P2;Temp;Humidity;BMP_temperature;BMP_pressure;BME280_temperature;BME280_humidity;BME280_pressure;Samples;Min_cycle;Max_cycle;Signal;HPM_P1;HPM_P2
2023/03/26 00:01:32;;;;;;;16.95;2.97;;;8.50;99.90;;;;;;6313266;22;20014;-95
2023/03/26 00:03:58;;;;;;;20.65;2.83;;;8.50;99.90;;;;;;6340979;22;20019;-95
2023/03/26 00:06:27;;;;;;;12.90;2.67;;;8.50;99.90;;;;;;6312952;22;20011;-94
2023/03/26 00:08:56;;;;;;;14.38;3.08;;;8.50;99.90;;;;;;6341140;22;20010;-95
2023/03/26 00:11:23;;;;;;;15.52;2.95;;;8.50;99.90;;;;;;6340862;22;20011;-94
2023/03/26 00:13:52;;;;;;;13.50;2.47;;;8.50;99.90;;;;;;6312631;22;20380;-94
2023/03/26 00:16:19;;;;;;;11.20;2.25;;;8.50;99.90;;;;;;6312286;22;20075;-94
2023/03/26 00:18:46;;;;;;;19.35;2.72;;;8.50;99.90;;;;;;6313635;22;20021;-94
2023/03/26 00:21:15;;;;;;;11.43;2.40;;;8.50;99.90;;;;;;6312770;22;20014;-95
2023/03/26 00:23:42;;;;;;;15.57;2.35;;;8.50;99.90;;;;;;6313002;22;20040;-95
2023/03/26 00:26:09;;;;;;;13.90;2.17;;;8.40;99.90;;;;;;6341128;22;20011;-94
2023/03/26 00:28:36;;;;;;;11.63;2.10;;;8.40;99.90;;;;;;6312960;22;20478;-94
2023/03/26 00:31:04;;;;;;;12.93;2.33;;;8.40;99.90;;;;;;6340350;22;20376;-95
2023/03/26 00:33:31;;;;;;;14.02;2.58;;;8.40;99.90;;;;;;6311950;22;20051;-95
2023/03/26 00:35:59;;;;;;;17.85;2.38;;;8.40;99.90;;;;;;6340435;22;20018;-95
2023/03/26 00:38:26;;;;;;;10.63;1.92;;;8.40;99.90;;;;;;6340036;22;20007;-95
2023/03/26 00:40:53;;;;;;;14.38;2.38;;;8.40;99.90;;;;;;6340521;22;20018;-95
2023/03/26 00:43:20;;;;;;;18.60;2.70;;;8.40;99.90;;;;;;6313848;22;20068;-94
2023/03/26 00:45:47;;;;;;;16.45;2.35;;;8.40;99.90;;;;;;6342427;22;20015;-95
2023/03/26 00:48:14;;;;;;;13.55;2.50;;;8.40;99.90;;;;;;6342078;22;20015;-94
2023/03/26 00:50:41;;;;;;;16.15;2.65;;;8.40;99.90;;;;;;6314840;22;20011;-93
2023/03/26 00:53:07;;;;;;;14.43;2.20;;;8.40;99.90;;;;;;6315332;22;20018;-95
2023/03/26 00:55:34;;;;;;;11.52;1.92;;;8.40;99.90;;;;;;6315355;22;20067;-94
2023/03/26 00:58:00;;;;;;;15.95;2.25;;;8.40;99.90;;;;;;6342508;22;20011;-94
2023/03/26 01:00:33;;;;;;;14.95;2.67;;;8.40;99.90;;;;;;6341856;22;20014;-95
2023/03/26 01:03:03;;;;;;;16.77;2.70;;;8.40;99.90;;;;;;6314638;22;20011;-93
2023/03/26 01:05:34;;;;;;;13.18;2.35;;;8.40;99.90;;;;;;6314645;22;20033;-94
2023/03/26 01:08:34;;;;;;;9.43;2.25;;;8.30;99.90;;;;;;6342773;22;20011;-93
2023/03/26 01:11:12;;;;;;;11.63;1.92;;;8.30;99.90;;;;;;6301869;22;20011;-94
2023/03/26 01:13:41;;;;;;;11.73;1.98;;;8.40;99.90;;;;;;6314812;22;20014;-95
2023/03/26 01:16:33;;;;;;;17.30;2.40;;;8.30;99.90;;;;;;6343365;22;20430;-96
2023/03/26 01:18:59;;;;;;;13.73;2.20;;;8.30;99.90;;;;;;6293767;22;20018;-94
2023/03/26 01:21:28;;;;;;;10.18;2.10;;;8.30;99.90;;;;;;6314053;22;20013;-94
2023/03/26 01:24:01;;;;;;;16.88;2.30;;;8.20;99.90;;;;;;6314994;22;20461;-95
2023/03/26 01:26:47;;;;;;;13.60;2.28;;;8.20;99.90;;;;;;6314702;22;20011;-95
2023/03/26 01:29:52;;;;;;;10.93;2.10;;;8.20;99.90;;;;;;6314613;22;20021;-94
2023/03/26 01:32:39;;;;;;;14.30;2.10;;;8.20;99.90;;;;;;6319522;22;20026;-95
2023/03/26 01:35:31;;;;;;;9.98;2.22;;;8.20;99.90;;;;;;6342535;22;20015;-94
2023/03/26 01:38:22;;;;;;;11.20;1.80;;;8.10;99.90;;;;;;6343383;22;20060;-95
2023/03/26 01:41:01;;;;;;;12.05;2.00;;;8.10;99.90;;;;;;6343110;22;20373;-94
2023/03/26 01:43:57;;;;;;;11.32;1.70;;;8.10;99.90;;;;;;6342921;22;20093;-94
2023/03/26 01:46:24;;;;;;;13.65;2.20;;;8.10;99.90;;;;;;6304262;22;20022;-95
2023/03/26 01:48:50;;;;;;;10.88;2.03;;;8.10;99.90;;;;;;6342060;22;20094;-94
2023/03/26 01:51:33;;;;;;;12.57;1.63;;;8.00;99.90;;;;;;6341333;22;20022;-93
2023/03/26 01:54:03;;;;;;;9.77;1.80;;;8.10;99.90;;;;;;6314098;22;20015;-94
2023/03/26 01:57:02;;;;;;;8.88;1.70;;;8.00;99.90;;;;;;6342054;22;20015;-94
2023/03/26 01:59:33;;;;;;;10.82;1.85;;;8.00;99.90;;;;;;6341262;22;20054;-94
2023/03/26 02:02:20;;;;;;;10.95;2.03;;;8.00;99.90;;;;;;6314009;22;20015;-95
2023/03/26 02:05:14;;;;;;;14.40;2.22;;;7.90;99.90;;;;;;6314373;22;20057;-94
2023/03/26 02:07:46;;;;;;;9.63;1.83;;;8.00;99.90;;;;;;6341040;22;20011;-95
2023/03/26 02:10:36;;;;;;;13.55;2.20;;;8.00;99.90;;;;;;6342034;22;20324;-94
2023/03/26 02:13:02;;;;;;;8.10;1.90;;;7.90;99.90;;;;;;6341825;22;20037;-94
2023/03/26 02:15:28;;;;;;;10.75;1.88;;;7.90;99.90;;;;;;6340866;22;20119;-94
2023/03/26 02:17:54;;;;;;;10.27;1.90;;;7.90;99.90;;;;;;6314577;22;20012;-94
2023/03/26 02:20:20;;;;;;;10.57;2.20;;;7.90;99.90;;;;;;6314820;22;20442;-94
2023/03/26 02:22:47;;;;;;;8.98;1.75;;;7.90;99.90;;;;;;6313073;22;20011;-94
2023/03/26 02:25:16;;;;;;;13.20;2.03;;;7.90;99.90;;;;;;6314059;22;20063;-95
2023/03/26 02:27:42;;;;;;;12.75;2.40;;;7.90;99.90;;;;;;6342751;22;20015;-94
2023/03/26 02:30:10;;;;;;;10.18;1.90;;;7.90;99.90;;;;;;6313154;22;20015;-93
2023/03/26 02:32:37;;;;;;;8.77;1.80;;;7.90;99.90;;;;;;6315071;22;20010;-95
2023/03/26 02:35:04;;;;;;;9.68;1.70;;;7.90;99.90;;;;;;6314241;22;20439;-93
2023/03/26 02:37:32;;;;;;;11.10;2.25;;;7.90;99.90;;;;;;6342013;22;20018;-94
2023/03/26 02:39:59;;;;;;;9.10;1.85;;;7.90;99.90;;;;;;6342236;22;20030;-95
2023/03/26 02:42:25;;;;;;;8.02;1.80;;;7.90;99.90;;;;;;6314524;22;20342;-94
2023/03/26 02:44:50;;;;;;;16.02;2.45;;;7.90;99.90;;;;;;6314575;22;20050;-94
2023/03/26 02:47:16;;;;;;;9.32;2.17;;;7.90;99.90;;;;;;6315429;22;20022;-95
2023/03/26 02:49:42;;;;;;;8.20;1.80;;;7.90;99.90;;;;;;6342359;22;20391;-95
2023/03/26 02:52:07;;;;;;;6.82;1.48;;;7.90;99.90;;;;;;6343089;22;20007;-94
2023/03/26 02:54:34;;;;;;;9.85;1.80;;;7.90;99.90;;;;;;6342845;22;20344;-95
2023/03/26 02:56:59;;;;;;;7.03;1.80;;;7.90;99.90;;;;;;6314670;22;20399;-94
2023/03/26 02:59:25;;;;;;;10.32;2.28;;;7.90;99.90;;;;;;6341787;22;20026;-94
2023/03/26 03:01:51;;;;;;;7.88;1.52;;;7.90;99.90;;;;;;6314921;22;20038;-95
2023/03/26 03:04:17;;;;;;;10.90;1.70;;;7.90;99.90;;;;;;6341700;22;20015;-93
2023/03/26 03:06:43;;;;;;;8.82;1.70;;;7.90;99.90;;;;;;6315540;22;20326;-95
2023/03/26 03:09:10;;;;;;;9.68;1.80;;;7.90;99.90;;;;;;6343073;22;20011;-93
2023/03/26 03:11:37;;;;;;;8.68;1.60;;;7.90;99.90;;;;;;6342550;22;20057;-94
2023/03/26 03:14:03;;;;;;;5.78;1.58;;;7.90;99.90;;;;;;6315897;22;20015;-95
2023/03/26 03:16:29;;;;;;;6.72;1.58;;;7.90;99.90;;;;;;6347546;22;20037;-96
2023/03/26 03:18:57;;;;;;;7.82;1.80;;;7.90;99.90;;;;;;6351099;22;20060;-95
2023/03/26 03:21:25;;;;;;;6.55;1.52;;;8.00;99.90;;;;;;6345879;22;20026;-95
2023/03/26 03:23:55;;;;;;;7.88;1.50;;;7.90;99.90;;;;;;6320708;22;20364;-96
2023/03/26 03:26:26;;;;;;;8.52;1.67;;;7.90;99.90;;;;;;6322857;22;20093;-96
2023/03/26 03:28:55;;;;;;;8.65;1.75;;;7.90;99.90;;;;;;6350412;22;20014;-96
2023/03/26 03:31:22;;;;;;;8.07;1.38;;;7.90;99.90;;;;;;6304633;22;20022;-96
2023/03/26 03:33:48;;;;;;;12.43;1.67;;;7.90;99.90;;;;;;6322550;22;20045;-95
2023/03/26 03:36:31;;;;;;;;;;;;;;;;;;;;;
2023/03/26 03:39:18;;;;;;;7.88;1.70;;;7.90;99.90;;;;;;6305899;22;20025;-96
2023/03/26 03:41:54;;;;;;;7.13;1.48;;;7.90;99.90;;;;;;6314747;22;20065;-95
2023/03/26 03:44:20;;;;;;;9.70;1.80;;;7.80;99.90;;;;;;6284231;22;20079;-96
2023/03/26 03:47:21;;;;;;;10.73;1.77;;;7.80;99.90;;;;;;6292371;22;20012;-96
2023/03/26 03:49:58;;;;;;;7.53;1.70;;;7.80;99.90;;;;;;6266279;22;20019;-96
2023/03/26 03:52:49;;;;;;;6.60;1.70;;;7.80;99.90;;;;;;6284121;22;20094;-96
2023/03/26 03:55:52;;;;;;;9.65;2.00;;;7.70;99.90;;;;;;6286739;22;20023;-95
2023/03/26 04:04:56;;;;;;;6.47;1.63;;;7.60;99.90;;;;;;6297678;22;20087;-96
2023/03/26 04:07:25;;;;;;;10.93;1.98;;;7.60;99.90;;;;;;6304350;22;20073;-96
2023/03/26 04:09:51;;;;;;;7.45;1.95;;;7.50;99.90;;;;;;6313670;22;20047;-96
2023/03/26 04:12:18;;;;;;;7.70;1.60;;;7.50;99.90;;;;;;6314532;22;20076;-95
2023/03/26 04:14:59;;;;;;;9.35;1.63;;;7.50;99.90;;;;;;6287977;22;20023;-95
2023/03/26 04:21:06;;;;;;;8.57;1.48;;;7.50;99.90;;;;;;6235743;22;20659;-96
2023/03/26 04:23:42;;;;;;;9.60;1.55;;;7.40;99.90;;;;;;6320964;22;20436;-96
2023/03/26 04:26:17;;;;;;;8.48;1.50;;;7.40;99.90;;;;;;6290515;22;20098;-96
2023/03/26 04:29:05;;;;;;;9.40;2.00;;;7.40;99.90;;;;;;6288294;22;20335;-95
2023/03/26 04:31:34;;;;;;;5.80;1.33;;;7.40;99.90;;;;;;6286523;22;20017;-95
2023/03/26 04:34:07;;;;;;;7.88;1.50;;;7.30;99.90;;;;;;6316334;22;20102;-95
2023/03/26 04:36:34;;;;;;;7.75;1.60;;;7.30;99.90;;;;;;6316958;22;20007;-96
2023/03/26 04:39:03;;;;;;;9.60;1.80;;;7.30;99.90;;;;;;6314911;22;20019;-96
2023/03/26 04:41:31;;;;;;;8.55;1.67;;;7.30;99.90;;;;;;6286040;22;20364;-95
2023/03/26 04:44:00;;;;;;;7.50;1.52;;;7.30;99.90;;;;;;6314028;22;20064;-95
2023/03/26 04:46:26;;;;;;;6.60;1.70;;;7.30;99.90;;;;;;6316482;22;20015;-96
2023/03/26 04:48:53;;;;;;;7.50;2.22;;;7.20;99.90;;;;;;6290744;22;20049;-95
2023/03/26 04:51:24;;;;;;;10.95;2.00;;;7.30;99.90;;;;;;6288749;22;20019;-95
2023/03/26 04:53:58;;;;;;;8.57;1.58;;;7.30;99.90;;;;;;6315115;22;20064;-96
2023/03/26 04:56:46;;;;;;;8.70;1.70;;;7.20;99.90;;;;;;6285870;22;20451;-95
2023/03/26 04:59:16;;;;;;;7.93;1.73;;;7.30;99.90;;;;;;6285864;22;20022;-95
2023/03/26 05:01:44;;;;;;;6.80;1.55;;;7.20;99.90;;;;;;6315180;22;20439;-95
2023/03/26 05:04:12;;;;;;;12.32;2.03;;;7.30;99.90;;;;;;6287315;22;20019;-95
2023/03/26 05:06:40;;;;;;;11.15;2.05;;;7.30;99.90;;;;;;6286106;22;20011;-96
2023/03/26 05:09:07;;;;;;;8.48;1.67;;;7.30;99.90;;;;;;6287929;22;20129;-96
2023/03/26 05:11:33;;;;;;;14.15;2.67;;;7.30;99.90;;;;;;6313925;22;20016;-95
2023/03/26 05:13:59;;;;;;;10.05;1.90;;;7.30;99.90;;;;;;6285690;22;20019;-96
2023/03/26 05:16:25;;;;;;;10.05;2.13;;;7.30;99.90;;;;;;6313102;22;20003;-96
2023/03/26 05:18:51;;;;;;;11.77;2.00;;;7.30;99.90;;;;;;6316724;22;20019;-95
2023/03/26 05:21:17;;;;;;;10.25;1.95;;;7.30;99.90;;;;;;6285526;22;20007;-95
2023/03/26 05:23:42;;;;;;;10.05;1.67;;;7.30;99.90;;;;;;6312501;22;20470;-95
2023/03/26 05:26:09;;;;;;;10.48;1.90;;;7.30;99.90;;;;;;6285112;22;20016;-96
2023/03/26 05:28:35;;;;;;;7.75;1.70;;;7.30;99.90;;;;;;6284795;22;20019;-96
2023/03/26 05:31:01;;;;;;;8.18;1.80;;;7.30;99.90;;;;;;6284984;22;20039;-95
2023/03/26 05:33:27;;;;;;;11.07;1.90;;;7.30;99.90;;;;;;6313409;22;20011;-94
2023/03/26 05:36:01;;;;;;;12.35;1.70;;;7.40;99.90;;;;;;6286337;22;20098;-95
2023/03/26 05:38:28;;;;;;;10.73;1.85;;;7.40;99.90;;;;;;6286142;22;20051;-96
2023/03/26 05:40:59;;;;;;;7.82;1.83;;;7.30;99.90;;;;;;6285246;22;20015;-95
2023/03/26 05:43:26;;;;;;;8.30;1.70;;;7.30;99.90;;;;;;6289651;22;20080;-95
2023/03/26 05:45:51;;;;;;;9.30;1.67;;;7.30;99.90;;;;;;6285242;22;20022;-95
2023/03/26 05:48:17;;;;;;;8.27;1.85;;;7.30;99.90;;;;;;6286360;22;20015;-94
2023/03/26 05:50:43;;;;;;;7.72;1.67;;;7.30;99.90;;;;;;6285524;22;20068;-94
2023/03/26 05:53:09;;;;;;;8.55;1.50;;;7.30;99.90;;;;;;6286197;22;20015;-96
2023/03/26 05:55:35;;;;;;;6.38;1.50;;;7.30;99.90;;;;;;6284639;22;20047;-96
2023/03/26 05:58:00;;;;;;;5.90;1.42;;;7.30;99.90;;;;;;6284882;22;20015;-95
2023/03/26 06:00:26;;;;;;;7.03;1.55;;;7.30;99.90;;;;;;6286475;22;20022;-96
2023/03/26 06:02:53;;;;;;;6.03;1.30;;;7.30;99.90;;;;;;6287262;22;20007;-94
2023/03/26 06:05:19;;;;;;;6.85;1.55;;;7.30;99.90;;;;;;6285091;22;20096;-94
2023/03/26 06:07:47;;;;;;;8.55;1.73;;;7.30;99.90;;;;;;6286066;22;20067;-94
2023/03/26 06:10:15;;;;;;;9.57;1.48;;;7.30;99.90;;;;;;6286189;22;20057;-96
2023/03/26 06:12:40;;;;;;;6.88;1.60;;;7.30;99.90;;;;;;6287880;22;20011;-96
2023/03/26 06:15:08;;;;;;;7.80;1.35;;;7.30;99.90;;;;;;6287422;22;20458;-96
2023/03/26 06:17:34;;;;;;;10.10;1.52;;;7.30;99.90;;;;;;6314108;22;20051;-96
2023/03/26 06:19:59;;;;;;;8.90;1.67;;;7.20;99.90;;;;;;6286967;22;20016;-96
2023/03/26 06:22:28;;;;;;;7.40;1.48;;;7.30;99.90;;;;;;6317435;22;20026;-95
2023/03/26 06:24:54;;;;;;;7.10;1.80;;;7.30;99.90;;;;;;6287103;22;20022;-93
2023/03/26 06:27:20;;;;;;;7.32;1.73;;;7.30;99.90;;;;;;6316008;22;20324;-96
2023/03/26 06:29:49;;;;;;;12.40;2.35;;;7.30;99.90;;;;;;6293810;22;19995;-96
2023/03/26 06:32:36;;;;;;;6.88;1.70;;;7.30;99.90;;;;;;6273073;22;20026;-96
2023/03/26 06:35:26;;;;;;;6.13;1.50;;;7.30;99.90;;;;;;6293377;22;20019;-95
2023/03/26 06:37:56;;;;;;;9.25;1.70;;;7.30;99.90;;;;;;6318350;22;20047;-96
2023/03/26 06:40:44;;;;;;;8.50;1.60;;;7.30;99.90;;;;;;6308330;22;20313;-96
2023/03/26 06:43:11;;;;;;;9.68;1.83;;;7.40;99.90;;;;;;6298794;22;20015;-96
2023/03/26 06:45:41;;;;;;;10.00;2.10;;;7.40;99.90;;;;;;6328537;22;20019;-96
2023/03/26 06:48:11;;;;;;;8.63;1.77;;;7.30;99.90;;;;;;6292944;22;20087;-96
2023/03/26 06:50:38;;;;;;;12.30;2.28;;;7.30;99.90;;;;;;6327786;22;20023;-96
2023/03/26 06:53:12;;;;;;;10.77;1.90;;;7.40;99.90;;;;;;6324491;22;20012;-96
2023/03/26 06:56:07;;;;;;;12.40;2.00;;;7.40;99.90;;;;;;6277357;22;20019;-96
2023/03/26 06:58:38;;;;;;;9.35;1.73;;;7.40;99.90;;;;;;6252874;22;20026;-96
2023/03/26 07:01:04;;;;;;;6.70;1.83;;;7.40;99.90;;;;;;6297503;22;20022;-96
2023/03/26 07:04:23;;;;;;;9.45;2.08;;;7.40;99.90;;;;;;6328846;22;20023;-96
2023/03/26 07:07:27;;;;;;;11.43;1.98;;;7.40;99.90;;;;;;6305429;22;20012;-96
2023/03/26 07:09:53;;;;;;;16.38;2.38;;;7.40;99.90;;;;;;6301030;22;20047;-96
2023/03/26 07:12:40;;;;;;;12.13;2.45;;;7.40;99.90;;;;;;6300754;22;20045;-96
2023/03/26 07:15:33;;;;;;;20.45;2.70;;;7.50;99.90;;;;;;6284742;22;20014;-96
2023/03/26 07:17:58;;;;;;;8.88;2.10;;;7.50;99.90;;;;;;6326178;22;20020;-96
2023/03/26 07:20:31;;;;;;;11.80;2.15;;;7.40;99.90;;;;;;6299312;22;20015;-96
2023/03/26 07:22:58;;;;;;;16.07;2.30;;;7.50;99.90;;;;;;6324529;22;20022;-95
2023/03/26 07:25:24;;;;;;;18.90;2.60;;;7.50;99.90;;;;;;6289424;22;20019;-95
2023/03/26 07:27:54;;;;;;;13.80;2.53;;;7.50;99.90;;;;;;6311599;22;20517;-94
2023/03/26 07:31:20;;;;;;;14.63;2.60;;;7.50;99.90;;;;;;6326253;22;20015;-96
2023/03/26 07:34:13;;;;;;;13.57;2.30;;;7.50;99.90;;;;;;6214797;22;20011;-95
2023/03/26 07:36:58;;;;;;;13.57;2.10;;;7.50;99.90;;;;;;6301047;22;20063;-94
2023/03/26 07:39:56;;;;;;;18.42;2.10;;;7.50;99.90;;;;;;6268526;22;20028;-95
2023/03/26 07:42:34;;;;;;;17.73;2.30;;;7.60;99.90;;;;;;6271694;22;20011;-96
2023/03/26 07:45:38;;;;;;;16.00;2.80;;;7.60;99.90;;;;;;6298595;22;20488;-90
2023/03/26 07:48:12;;;;;;;13.25;2.30;;;7.60;99.90;;;;;;6201699;22;20026;-94
2023/03/26 07:50:38;;;;;;;24.98;3.20;;;7.70;99.90;;;;;;6318482;22;20026;-96
2023/03/26 07:53:04;;;;;;;18.48;2.45;;;7.70;99.90;;;;;;6314864;22;20019;-95
2023/03/26 07:55:30;;;;;;;11.35;2.22;;;7.70;99.90;;;;;;6318800;22;20045;-96
2023/03/26 07:58:35;;;;;;;13.02;2.20;;;7.70;99.90;;;;;;6317992;22;20019;-95
2023/03/26 08:01:34;;;;;;;13.27;2.13;;;7.70;99.90;;;;;;6315773;22;20087;-96
2023/03/26 08:04:46;;;;;;;15.63;2.30;;;7.80;99.90;;;;;;6291932;22;20015;-96
2023/03/26 08:07:51;;;;;;;17.67;2.53;;;7.80;99.90;;;;;;6305692;22;20331;-96
2023/03/26 08:10:44;;;;;;;12.98;2.28;;;7.80;99.90;;;;;;6297262;22;20015;-96
2023/03/26 08:14:01;;;;;;;13.63;2.40;;;7.90;99.90;;;;;;6277208;22;20014;-96
2023/03/26 08:16:41;;;;;;;13.15;2.22;;;7.90;99.90;;;;;;6264499;22;20100;-93
2023/03/26 08:27:38;;;;;;;;;;;;;;;;;;;;;
2023/03/26 08:37:17;;;;;;;14.77;2.13;;;8.00;99.90;;;;;;6254236;22;20138;-94
2023/03/26 08:39:43;;;;;;;14.13;2.70;;;8.00;99.90;;;;;;6228694;23;20452;-92
2023/03/26 08:42:21;;;;;;;12.55;2.72;;;8.10;99.90;;;;;;6220768;23;20027;-94
2023/03/26 08:45:05;;;;;;;15.05;2.55;;;8.00;99.90;;;;;;6221265;23;20055;-94
2023/03/26 08:47:49;;;;;;;13.02;2.05;;;8.10;99.90;;;;;;6220750;23;20048;-94
2023/03/26 08:51:06;;;;;;;17.45;2.35;;;8.10;99.90;;;;;;6227383;23;20016;-95
2023/03/26 08:53:56;;;;;;;16.55;2.50;;;8.10;99.90;;;;;;6181437;22;20016;-92
2023/03/26 08:56:50;;;;;;;20.70;2.70;;;8.10;99.90;;;;;;6250438;23;20047;-96
2023/03/26 08:59:40;;;;;;;17.73;2.78;;;8.10;99.90;;;;;;6225017;23;20027;-95
2023/03/26 09:02:40;;;;;;;15.27;2.40;;;8.10;99.90;;;;;;6247988;23;20016;-95
2023/03/26 09:05:23;;;;;;;13.93;2.03;;;8.20;99.90;;;;;;6251964;23;20378;-94
2023/03/26 09:08:12;;;;;;;15.05;2.80;;;8.20;99.90;;;;;;6249274;23;20123;-93
2023/03/26 09:10:49;;;;;;;14.57;2.22;;;8.20;99.90;;;;;;6221978;23;20345;-93
2023/03/26 09:13:21;;;;;;;14.10;2.50;;;8.20;99.90;;;;;;6222161;23;20015;-95
2023/03/26 09:16:04;;;;;;;19.27;2.40;;;8.20;99.90;;;;;;6222161;23;20078;-93
2023/03/26 09:18:50;;;;;;;14.43;2.45;;;8.30;99.90;;;;;;6248550;23;20542;-92
2023/03/26 09:21:25;;;;;;;13.60;2.38;;;8.30;99.90;;;;;;6222000;23;20016;-93
2023/03/26 09:24:15;;;;;;;13.13;2.22;;;8.30;99.90;;;;;;6221850;23;20069;-94
2023/03/26 09:27:31;;;;;;;13.18;2.63;;;8.40;99.90;;;;;;6222015;23;20012;-95
2023/03/26 09:30:08;;;;;;;20.60;3.05;;;8.40;99.90;;;;;;6073683;23;20050;-95
2023/03/26 09:32:58;;;;;;;12.80;2.58;;;8.40;99.90;;;;;;6097429;23;20022;-93
2023/03/26 09:35:42;;;;;;;15.25;2.40;;;8.40;99.90;;;;;;6196374;22;20141;-95
2023/03/26 09:38:10;;;;;;;;;;;8.40;99.90;;;;;;6253007;22;20012;-93
2023/03/26 09:40:43;;;;;;;13.88;2.47;;;8.50;99.90;;;;;;6279931;22;19977;-93
2023/03/26 09:43:39;;;;;;;16.65;2.30;;;8.50;99.90;;;;;;6279288;22;20015;-94
2023/03/26 09:46:35;;;;;;;14.60;2.50;;;8.50;99.90;;;;;;6279763;22;20015;-94
2023/03/26 09:49:25;;;;;;;13.88;2.10;;;8.60;99.90;;;;;;6257036;22;20071;-94
2023/03/26 09:52:33;;;;;;;18.98;2.53;;;8.60;99.90;;;;;;6252133;22;20019;-94
2023/03/26 09:55:28;;;;;;;15.10;2.63;;;8.70;99.90;;;;;;6208399;22;20027;-94
2023/03/26 09:58:12;;;;;;;18.00;2.58;;;8.60;99.90;;;;;;6252563;22;20094;-93
2023/03/26 10:00:48;;;;;;;16.45;2.65;;;8.70;99.90;;;;;;6252445;22;20019;-93
2023/03/26 10:03:32;;;;;;;11.73;2.20;;;8.70;99.90;;;;;;6251919;22;20019;-91
2023/03/26 10:06:22;;;;;;;14.63;2.33;;;8.80;99.90;;;;;;6282401;22;20058;-94
2023/03/26 10:09:19;;;;;;;13.93;2.38;;;8.80;99.90;;;;;;6253954;22;20016;-96
2023/03/26 10:12:03;;;;;;;12.57;2.25;;;8.80;99.90;;;;;;6284622;22;20381;-96
2023/03/26 10:14:28;;;;;;;;;;;8.90;99.90;;;;;;6281731;22;20020;-91
2023/03/26 10:17:18;;;;;;;13.82;2.33;;;8.90;99.90;;;;;;6279781;22;19982;-94
2023/03/26 10:20:11;;;;;;;9.68;2.10;;;8.90;99.90;;;;;;6268022;22;20066;-92
2023/03/26 10:23:15;;;;;;;15.10;2.27;;;9.00;99.90;;;;;;6266679;22;20083;-93
2023/03/26 10:25:46;;;;;;;13.55;2.20;;;9.00;99.90;;;;;;6285823;22;20027;-92
2023/03/26 10:28:31;;;;;;;13.52;3.05;;;9.00;99.90;;;;;;6250498;22;20065;-94
2023/03/26 10:31:00;;;;;;;13.45;2.40;;;9.00;99.90;;;;;;6251655;22;20066;-92
2023/03/26 10:33:44;;;;;;;12.23;2.08;;;9.00;99.90;;;;;;6251244;22;20336;-91
2023/03/26 10:36:22;;;;;;;12.65;2.38;;;9.10;99.90;;;;;;6278362;22;20090;-92
2023/03/26 10:39:22;;;;;;;13.70;2.20;;;9.10;99.90;;;;;;6250920;22;20023;-91
2023/03/26 10:42:16;;;;;;;12.63;2.13;;;9.10;99.90;;;;;;6249896;22;20019;-92
2023/03/26 10:45:06;;;;;;;14.52;2.42;;;9.20;99.90;;;;;;6250940;22;20015;-92
2023/03/26 10:48:04;;;;;;;12.25;2.38;;;9.20;99.90;;;;;;6277628;22;20047;-91
2023/03/26 10:51:01;;;;;;;17.55;3.05;;;9.20;99.90;;;;;;6277109;22;20692;-91
2023/03/26 10:53:36;;;;;;;18.25;2.50;;;9.20;99.90;;;;;;6250390;22;20016;-91
2023/03/26 10:56:31;;;;;;;14.13;2.00;;;9.20;99.90;;;;;;6277097;22;20012;-91
2023/03/26 10:59:03;;;;;;;13.05;2.38;;;9.20;99.90;;;;;;6250837;22;20440;-92
2023/03/26 11:01:50;;;;;;;17.20;2.78;;;9.20;99.90;;;;;;6250757;22;20435;-92
2023/03/26 11:04:39;;;;;;;11.32;1.98;;;9.30;99.90;;;;;;6277352;22;20458;-91
2023/03/26 11:07:32;;;;;;;12.82;2.33;;;9.30;99.90;;;;;;6250211;22;20347;-92
2023/03/26 11:10:15;;;;;;;12.30;2.70;;;9.30;99.90;;;;;;6276803;22;20011;-90
2023/03/26 11:13:01;;;;;;;;;;;9.30;99.90;;;;;;6251152;22;20019;-90
2023/03/26 11:15:38;;;;;;;10.40;2.20;;;9.30;99.90;;;;;;6277274;22;20328;-90
2023/03/26 11:18:24;;;;;;;14.25;2.30;;;9.30;99.90;;;;;;6277338;22;20088;-90
2023/03/26 11:21:19;;;;;;;15.13;2.70;;;9.30;99.90;;;;;;6249885;22;20054;-91
2023/03/26 11:24:11;;;;;;;14.43;2.33;;;9.40;99.90;;;;;;6277117;22;20012;-93
2023/03/26 11:26:57;;;;;;;13.65;2.65;;;9.40;99.90;;;;;;6278069;22;20018;-92
2023/03/26 11:29:41;;;;;;;13.38;2.47;;;9.40;99.90;;;;;;6250659;22;20016;-92
2023/03/26 11:32:12;;;;;;;17.00;2.15;;;9.40;99.90;;;;;;6250082;22;20090;-93
2023/03/26 11:34:59;;;;;;;13.07;2.47;;;9.40;99.90;;;;;;6276580;22;20313;-91
2023/03/26 11:37:33;;;;;;;16.40;2.70;;;9.40;99.90;;;;;;6249672;22;20034;-92
2023/03/26 11:40:10;;;;;;;15.18;2.28;;;9.40;99.90;;;;;;6276620;22;20022;-91
2023/03/26 11:42:36;;;;;;;14.63;2.30;;;9.40;99.90;;;;;;6250012;22;20012;-94
2023/03/26 11:45:15;;;;;;;13.27;2.28;;;9.40;99.90;;;;;;6253638;22;20099;-91
2023/03/26 11:48:01;;;;;;;13.73;2.50;;;9.50;99.90;;;;;;6258424;22;19996;-96
2023/03/26 11:50:29;;;;;;;13.93;2.30;;;9.50;99.90;;;;;;6250609;22;20019;-93
2023/03/26 11:53:11;;;;;;;12.57;2.28;;;9.50;99.90;;;;;;6249847;22;20008;-95
2023/03/26 11:56:13;;;;;;;14.43;2.38;;;9.50;99.90;;;;;;6250957;22;20019;-93
2023/03/26 11:58:44;;;;;;;13.40;2.38;;;9.50;99.90;;;;;;6210867;22;20027;-91
2023/03/26 12:01:18;;;;;;;18.45;2.95;;;9.50;99.90;;;;;;6248569;22;20012;-89
2023/03/26 12:04:12;;;;;;;14.02;2.30;;;9.60;99.90;;;;;;6276708;22;20458;-90
2023/03/26 12:06:38;;;;;;;14.77;3.00;;;9.60;99.90;;;;;;6275851;22;20133;-90
2023/03/26 12:09:18;;;;;;;15.45;2.78;;;9.60;99.90;;;;;;6249791;22;20026;-91
2023/03/26 12:11:44;;;;;;;14.75;2.47;;;9.60;99.90;;;;;;6277395;22;20062;-90
2023/03/26 12:14:16;;;;;;;17.50;2.53;;;9.60;99.90;;;;;;6248865;22;20012;-89
2023/03/26 12:17:10;;;;;;;14.45;2.28;;;9.70;99.90;;;;;;6250245;22;20400;-95
2023/03/26 12:19:41;;;;;;;14.27;2.67;;;9.70;99.90;;;;;;6252910;22;20020;-93
2023/03/26 12:22:36;;;;;;;16.05;2.80;;;9.70;99.90;;;;;;6250371;22;20015;-94
2023/03/26 12:25:08;;;;;;;14.15;2.70;;;9.70;99.90;;;;;;6250369;22;20348;-93
2023/03/26 12:27:36;;;;;;;10.45;2.30;;;9.70;99.90;;;;;;6248717;22;20093;-93
2023/03/26 12:30:32;;;;;;;15.63;2.60;;;9.80;99.90;;;;;;6249731;22;20023;-91
2023/03/26 12:33:29;;;;;;;13.57;2.58;;;9.80;99.90;;;;;;6250909;22;20016;-92
2023/03/26 12:35:59;;;;;;;14.88;2.45;;;9.80;99.90;;;;;;6246856;22;20018;-91
2023/03/26 12:38:31;;;;;;;13.57;2.53;;;9.80;99.90;;;;;;6247837;22;20020;-91
2023/03/26 12:41:12;;;;;;;11.00;2.08;;;9.80;99.90;;;;;;6249517;22;20066;-91
2023/03/26 12:43:51;;;;;;;15.60;2.58;;;9.80;99.90;;;;;;6250445;22;20019;-91
2023/03/26 12:46:26;;;;;;;18.10;2.50;;;9.80;99.90;;;;;;6278300;22;20015;-91
2023/03/26 12:48:53;;;;;;;17.60;2.70;;;9.90;99.90;;;;;;6250597;22;20023;-88
2023/03/26 12:51:43;;;;;;;13.23;2.47;;;9.90;99.90;;;;;;6250807;22;20077;-91
2023/03/26 12:54:54;;;;;;;11.65;2.25;;;9.90;99.90;;;;;;6251289;22;20016;-88
2023/03/26 12:57:29;;;;;;;13.68;2.50;;;9.80;99.90;;;;;;6204884;22;20015;-88
2023/03/26 13:00:25;;;;;;;11.52;2.45;;;9.80;99.90;;;;;;6252365;22;20015;-93
2023/03/26 13:03:10;;;;;;;10.88;2.13;;;9.80;99.90;;;;;;6252314;22;20051;-94
2023/03/26 13:06:12;;;;;;;14.38;2.30;;;9.80;99.90;;;;;;6279745;22;20054;-93
2023/03/26 13:08:59;;;;;;;15.05;2.60;;;9.80;99.90;;;;;;6130700;23;20437;-94
2023/03/26 13:12:02;;;;;;;16.85;5.20;;;9.90;99.90;;;;;;6245603;22;20523;-94
2023/03/26 13:14:59;;;;;;;15.43;2.92;;;9.80;99.90;;;;;;6252357;22;20093;-94
2023/03/26 13:17:47;;;;;;;13.85;2.50;;;9.80;99.90;;;;;;6278796;22;20015;-92
2023/03/26 13:20:52;;;;;;;18.02;3.15;;;9.90;99.90;;;;;;6252064;22;20334;-93
2023/03/26 13:23:39;;;;;;;15.35;2.85;;;9.80;99.90;;;;;;6251404;22;20440;-94
2023/03/26 13:26:37;;;;;;;14.40;2.67;;;9.70;99.90;;;;;;6252456;22;20027;-93
2023/03/26 13:29:09;;;;;;;15.70;2.90;;;9.70;99.90;;;;;;6251855;22;20008;-92
2023/03/26 13:31:52;;;;;;;18.50;5.30;;;9.70;99.90;;;;;;6251670;22;20104;-93
2023/03/26 13:34:28;;;;;;;18.37;4.00;;;9.70;99.90;;;;;;6252227;22;20022;-94
2023/03/26 13:37:42;;;;;;;18.17;4.35;;;9.70;99.90;;;;;;6278473;22;20030;-92
2023/03/26 13:40:36;;;;;;;11.88;2.83;;;9.70;99.90;;;;;;6131346;23;20049;-94
2023/03/26 13:43:11;;;;;;;12.02;3.30;;;9.70;99.90;;;;;;6131258;23;20029;-92
2023/03/26 13:46:05;;;;;;;12.45;2.70;;;9.70;99.90;;;;;;6226141;22;20026;-93
2023/03/26 13:48:40;;;;;;;13.10;2.75;;;9.70;99.90;;;;;;6278527;22;20011;-92
2023/03/26 13:51:17;;;;;;;12.95;2.55;;;9.80;99.90;;;;;;6277733;22;20020;-92
2023/03/26 13:53:54;;;;;;;14.95;3.03;;;9.70;99.90;;;;;;6279335;22;20093;-93
2023/03/26 13:56:30;;;;;;;13.00;2.45;;;9.80;99.90;;;;;;6279012;22;20034;-92
2023/03/26 13:59:02;;;;;;;12.98;2.50;;;9.80;99.90;;;;;;6250980;22;20015;-93
2023/03/26 14:01:33;;;;;;;13.32;2.63;;;9.80;99.90;;;;;;6251407;22;20095;-93
2023/03/26 14:04:22;;;;;;;15.95;2.50;;;9.80;99.90;;;;;;6251760;22;20015;-93
2023/03/26 14:06:57;;;;;;;12.13;2.38;;;9.80;99.90;;;;;;6251251;22;20337;-95
2023/03/26 14:09:37;;;;;;;17.08;2.50;;;9.80;99.90;;;;;;6278903;22;20367;-91
2023/03/26 14:12:25;;;;;;;13.80;2.70;;;9.80;99.90;;;;;;6251007;22;20340;-93
2023/03/26 14:14:59;;;;;;;12.57;2.60;;;9.90;99.90;;;;;;6278836;22;20020;-92